createdAt,value
2018-12-30T00:02:03.697Z,1.60
2018-12-30T00:07:01.265Z,1.60
2018-12-30T00:12:01.542Z,1.60
2018-12-30T00:16:57.579Z,1.50
2018-12-30T00:21:53.771Z,1.60
2018-12-30T00:26:52.835Z,1.60
2018-12-30T00:31:55.608Z,1.60
2018-12-30T00:36:51.560Z,1.60
2018-12-30T00:41:49.496Z,1.70
2018-12-30T00:46:54.787Z,1.70
2018-12-30T00:51:50.668Z,1.70
2018-12-30T00:56:46.640Z,1.70
2018-12-30T01:02:02.074Z,1.60
2018-12-30T01:06:57.875Z,1.70
2018-12-30T01:11:53.933Z,1.70
2018-12-30T01:16:49.821Z,1.70
2018-12-30T01:21:51.872Z,1.70
2018-12-30T01:26:50.836Z,1.80
2018-12-30T01:31:46.812Z,1.80
2018-12-30T01:36:53.576Z,1.80
2018-12-30T01:41:52.285Z,1.70
2018-12-30T01:46:48.081Z,1.60
2018-12-30T01:51:43.984Z,1.60
2018-12-30T01:56:40.220Z,1.60
2018-12-30T02:01:36.066Z,1.60
2018-12-30T02:06:31.863Z,1.70
2018-12-30T02:11:33.902Z,1.80
2018-12-30T02:16:29.779Z,1.70
2018-12-30T02:21:26.044Z,1.70
2018-12-30T02:26:23.743Z,1.70
2018-12-30T02:31:19.631Z,1.70
2018-12-30T02:36:15.845Z,1.70
2018-12-30T02:41:25.380Z,1.80
2018-12-30T02:46:29.698Z,1.80
2018-12-30T02:51:25.489Z,1.90
2018-12-30T02:56:21.310Z,1.90
2018-12-30T03:01:21.100Z,1.90
2018-12-30T03:06:22.480Z,1.90
2018-12-30T03:11:21.321Z,2.00
2018-12-30T03:16:18.902Z,2.00
2018-12-30T03:21:27.123Z,2.00
2018-12-30T06:08:05.744Z,2.40
2018-12-30T06:13:00.027Z,2.50
2018-12-30T06:17:55.828Z,2.50
2018-12-30T06:22:51.613Z,2.60
2018-12-30T06:27:47.408Z,2.60
2018-12-30T06:32:43.171Z,2.60
2018-12-30T06:37:50.573Z,2.70
2018-12-30T06:42:46.668Z,2.70
2018-12-30T06:47:42.994Z,2.70
2018-12-30T06:52:43.127Z,2.80
2018-12-30T06:57:39.079Z,2.80
2018-12-30T07:02:35.051Z,2.80
2018-12-30T07:07:50.948Z,2.70
2018-12-30T07:12:38.678Z,2.80
2018-12-30T07:17:34.905Z,2.70
2018-12-30T07:22:31.564Z,2.70
2018-12-30T07:27:30.985Z,2.80
2018-12-30T07:32:27.400Z,2.70
2018-12-30T07:37:25.020Z,2.80
2018-12-30T07:42:27.439Z,2.80
2018-12-30T07:49:03.326Z,2.80
2018-12-30T07:54:37.933Z,2.90
2018-12-30T07:59:46.809Z,2.80
2018-12-30T08:10:05.069Z,2.90
2018-12-30T08:15:00.906Z,2.80
2018-12-30T08:19:56.776Z,2.80
2018-12-30T08:24:52.617Z,2.80
2018-12-30T08:29:48.501Z,2.90
2018-12-30T08:34:49.012Z,3.00
2018-12-30T08:39:52.696Z,2.90
2018-12-30T09:02:51.377Z,3.00
2018-12-30T09:07:48.351Z,3.00
2018-12-30T09:12:45.388Z,3.10
2018-12-30T09:17:42.850Z,3.10
2018-12-30T09:22:44.912Z,3.10
2018-12-30T09:27:43.042Z,3.20
2018-12-30T09:32:59.164Z,3.30
2018-12-30T09:38:14.781Z,3.40
2018-12-30T09:43:10.553Z,3.40
2018-12-30T09:48:06.372Z,3.50
2018-12-30T09:53:02.317Z,3.50
2018-12-30T09:58:01.383Z,3.50
2018-12-30T10:02:57.379Z,3.50
2018-12-30T10:07:53.318Z,3.60
2018-12-30T10:12:49.236Z,3.60
2018-12-30T10:17:45.731Z,3.60
2018-12-30T10:22:42.783Z,3.60
2018-12-30T10:27:38.837Z,3.80
2018-12-30T10:32:35.103Z,3.80
2018-12-30T10:37:30.927Z,3.90
2018-12-30T10:42:27.317Z,4.00
2018-12-30T10:47:23.254Z,3.90
2018-12-30T10:52:19.604Z,3.90
2018-12-30T10:57:15.474Z,3.80
2018-12-30T11:02:11.337Z,3.80
2018-12-30T11:07:07.268Z,3.80
2018-12-30T11:12:03.046Z,3.90
2018-12-30T11:16:58.985Z,3.90
2018-12-30T11:21:54.900Z,4.00
2018-12-30T11:26:51.155Z,4.10
2018-12-30T11:31:47.209Z,4.10
2018-12-30T11:36:43.340Z,4.10
2018-12-30T11:41:39.170Z,4.10
2018-12-30T11:46:35.129Z,4.10
2018-12-30T11:51:31.110Z,4.20
2018-12-30T11:56:27.046Z,4.20
2018-12-30T12:01:23.120Z,4.20
2018-12-30T12:06:18.967Z,4.10
2018-12-30T12:11:15.028Z,4.00
2018-12-30T12:16:11.773Z,4.00
2018-12-30T12:21:07.882Z,4.00
2018-12-30T12:26:03.785Z,3.90
2018-12-30T12:30:59.765Z,3.90
2018-12-30T12:35:55.767Z,3.80
2018-12-30T12:40:51.599Z,3.80
2018-12-30T12:45:47.431Z,3.80
2018-12-30T12:50:43.343Z,3.80
2018-12-30T12:55:39.503Z,3.90
2018-12-30T13:00:35.569Z,3.90
2018-12-30T13:05:31.415Z,3.90
2018-12-30T13:10:27.408Z,3.90
2018-12-30T13:15:23.281Z,3.90
2018-12-30T13:20:19.139Z,4.00
2018-12-30T13:25:15.065Z,4.00
2018-12-30T13:30:11.155Z,4.10
2018-12-30T13:35:07.467Z,4.10
2018-12-30T13:40:03.430Z,4.10
2018-12-30T13:44:59.289Z,4.00
2018-12-30T13:49:55.159Z,4.10
2018-12-30T13:54:50.966Z,4.10
2018-12-30T13:59:46.772Z,4.20
2018-12-30T14:04:42.693Z,4.10
2018-12-30T14:09:38.507Z,4.10
2018-12-30T14:14:34.404Z,4.10
2018-12-30T14:19:30.245Z,4.10
2018-12-30T14:24:26.180Z,4.10
2018-12-30T14:29:24.912Z,4.00
2018-12-30T14:34:20.766Z,4.00
2018-12-30T14:39:16.696Z,3.90
2018-12-30T14:44:12.520Z,3.80
2018-12-30T14:49:08.454Z,3.80
2018-12-30T14:54:15.414Z,3.80
2018-12-30T14:59:11.454Z,3.80
2018-12-30T15:04:07.317Z,3.70
2018-12-30T15:09:05.744Z,3.70
2018-12-30T15:14:01.640Z,3.60
2018-12-30T15:18:57.542Z,3.50
2018-12-30T15:23:53.517Z,3.50
2018-12-30T15:28:49.503Z,3.40
2018-12-30T15:33:45.416Z,3.40
2018-12-30T15:38:41.279Z,3.40
2018-12-30T15:43:37.169Z,3.40
2018-12-30T15:48:33.118Z,3.30
2018-12-30T15:53:29.056Z,3.30
2018-12-30T15:58:26.491Z,3.30
2018-12-30T16:03:30.927Z,3.20
2018-12-30T16:08:26.799Z,3.20
2018-12-30T16:13:22.653Z,3.20
2018-12-30T16:18:18.591Z,3.20
2018-12-30T16:23:14.523Z,3.20
2018-12-30T16:28:10.365Z,3.20
2018-12-30T16:33:06.155Z,3.10
2018-12-30T16:38:01.978Z,3.10
2018-12-30T16:42:58.190Z,3.10
2018-12-30T16:47:54.223Z,3.10
2018-12-30T16:52:50.155Z,3.10
2018-12-30T16:57:47.326Z,3.10
2018-12-30T17:02:43.233Z,3.10
2018-12-30T17:07:39.185Z,3.00
2018-12-30T17:12:35.041Z,3.10
2018-12-30T17:17:31.026Z,3.10
2018-12-30T17:22:26.937Z,3.10
2018-12-30T17:27:22.965Z,3.10
2018-12-30T17:32:19.010Z,3.10
2018-12-30T17:37:15.132Z,3.10
2018-12-30T17:42:11.369Z,3.10
2018-12-30T17:47:07.552Z,3.10
2018-12-30T18:11:06.158Z,3.20
2018-12-30T18:16:02.111Z,3.30
2018-12-30T18:20:58.056Z,3.30
2018-12-30T18:25:58.635Z,3.30
2018-12-30T18:30:51.598Z,3.30
2018-12-30T18:35:48.382Z,3.30
2018-12-30T18:40:44.142Z,3.30
2018-12-30T18:45:39.887Z,3.30
2018-12-30T18:50:35.644Z,3.30
2018-12-30T18:55:31.415Z,3.30
2018-12-30T19:00:27.347Z,3.20
2018-12-30T19:05:23.234Z,3.20
2018-12-30T19:10:19.652Z,3.20
2018-12-30T19:15:15.496Z,3.10
2018-12-30T19:20:11.375Z,3.10
2018-12-30T19:25:07.816Z,3.10
2018-12-30T19:30:03.639Z,3.10
2018-12-30T19:34:59.708Z,3.00
2018-12-30T19:39:55.543Z,3.00
2018-12-30T19:44:51.418Z,3.10
2018-12-30T19:49:47.361Z,3.00
2018-12-30T19:54:43.207Z,3.00
2018-12-30T19:59:39.072Z,3.00
2018-12-30T20:04:40.558Z,3.00
2018-12-30T20:09:32.500Z,2.90
2018-12-30T20:14:28.291Z,2.90
2018-12-30T20:19:24.121Z,2.90
2018-12-30T20:24:19.959Z,2.90
2018-12-30T20:29:15.860Z,2.90
2018-12-30T20:34:11.687Z,2.90
2018-12-30T20:39:09.542Z,2.90
2018-12-30T20:44:05.331Z,2.90
2018-12-30T20:49:01.158Z,2.90
2018-12-30T20:53:57.001Z,2.90
2018-12-30T20:58:52.860Z,2.90
2018-12-30T21:03:48.796Z,2.90
2018-12-30T21:08:44.845Z,2.90
2018-12-30T21:13:40.816Z,2.90
2018-12-30T21:18:37.631Z,2.90
2018-12-30T21:23:33.495Z,3.00
2018-12-30T21:28:29.301Z,2.90
2018-12-30T21:33:25.107Z,2.90
2018-12-30T21:38:20.901Z,2.90
2018-12-30T21:43:16.760Z,2.90
2018-12-30T21:48:12.644Z,2.80
2018-12-30T21:53:08.543Z,2.80
2018-12-30T21:58:04.834Z,2.80
2018-12-30T22:03:02.227Z,2.80
2018-12-30T22:07:58.082Z,2.80
2018-12-30T22:12:53.888Z,2.80
2018-12-30T22:17:49.811Z,2.90
2018-12-30T22:22:45.632Z,2.90
2018-12-30T22:27:41.466Z,3.00
2018-12-30T22:32:38.789Z,3.00
2018-12-30T22:37:34.712Z,3.00
2018-12-30T22:42:32.866Z,2.90
2018-12-30T22:47:28.255Z,2.90
2018-12-30T22:52:24.118Z,2.90
2018-12-30T22:57:19.921Z,2.90
2018-12-30T23:02:47.786Z,3.00
2018-12-30T23:07:35.186Z,2.90
2018-12-30T23:12:31.105Z,2.80
2018-12-30T23:17:27.024Z,2.80
2018-12-30T23:22:22.914Z,2.80
2018-12-30T23:27:21.761Z,2.70
2018-12-30T23:32:17.658Z,2.80
2018-12-30T23:37:30.857Z,2.80
2018-12-30T23:42:26.923Z,2.80
2018-12-30T23:47:22.789Z,2.80
2018-12-30T23:52:18.578Z,2.70
2018-12-30T23:57:14.337Z,2.80
